Time;durP1;ratioP1;P1;durP2;ratioP2;P2;SDS_P1;SDS_P2;PMS_P1;PMS_P2;Temp;Humidity;BMP_temperature;BMP_pressure;BME280_temperature;BME280_humidity;BME280_pressure;Samples;Min_cycle;Max_cycle;Signal;HPM_P1;HPM_P2
2022/04/28 00:00:50;;;;;;;8.15;3.67;;;5.70;99.90;;;;;;5010306;28;20092;-89
2022/04/28 00:03:15;;;;;;;9.48;4.18;;;5.70;99.90;;;;;;4994125;28;20084;-89
2022/04/28 00:05:42;;;;;;;11.73;5.00;;;5.60;99.90;;;;;;5010624;28;20092;-88
2022/04/28 00:08:08;;;;;;;9.50;4.38;;;5.60;99.90;;;;;;4994410;28;20089;-88
2022/04/28 00:10:36;;;;;;;10.07;4.30;;;5.50;99.90;;;;;;4994135;28;20100;-89
2022/04/28 00:13:03;;;;;;;13.68;4.53;;;5.50;99.90;;;;;;5010466;28;20046;-89
2022/04/28 00:15:29;;;;;;;12.30;5.35;;;5.50;99.90;;;;;;5010451;28;20038;-89
2022/04/28 00:17:55;;;;;;;12.40;4.63;;;5.50;99.90;;;;;;4997148;28;20530;-89
2022/04/28 00:20:21;;;;;;;12.82;4.65;;;5.50;99.90;;;;;;5013517;28;20089;-89
2022/04/28 00:22:47;;;;;;;12.23;4.60;;;5.50;99.90;;;;;;5013757;28;20084;-89
2022/04/28 00:25:12;;;;;;;14.57;5.18;;;5.50;99.90;;;;;;5014589;28;20052;-88
2022/04/28 00:27:38;;;;;;;11.02;5.07;;;5.50;99.90;;;;;;5014049;28;20038;-88
2022/04/28 00:30:05;;;;;;;12.82;4.72;;;5.40;99.90;;;;;;4997610;28;20435;-89
2022/04/28 00:32:30;;;;;;;11.07;4.38;;;5.40;99.90;;;;;;5013951;28;20038;-89
2022/04/28 00:34:56;;;;;;;11.90;4.65;;;5.30;99.90;;;;;;5014290;28;20108;-89
2022/04/28 00:37:22;;;;;;;12.05;5.15;;;5.30;99.90;;;;;;4997719;28;20034;-89
2022/04/28 00:39:48;;;;;;;9.77;3.90;;;5.20;99.90;;;;;;5013840;28;20049;-89
2022/04/28 00:42:15;;;;;;;10.95;4.07;;;5.10;99.90;;;;;;5013699;28;20049;-89
2022/04/28 00:44:42;;;;;;;11.23;4.65;;;5.10;99.90;;;;;;5013449;28;20518;-89
2022/04/28 00:47:08;;;;;;;13.10;4.53;;;5.10;99.90;;;;;;5009635;28;20077;-90
2022/04/28 00:52:19;;;;;;;10.75;4.57;;;5.00;99.90;;;;;;5003259;28;20054;-90
2022/04/28 00:54:47;;;;;;;12.55;5.18;;;5.00;99.90;;;;;;5004985;28;20046;-90
2022/04/28 00:57:17;;;;;;;11.02;4.93;;;5.00;99.90;;;;;;5012069;28;20030;-90
2022/04/28 00:59:45;;;;;;;12.57;5.65;;;5.00;99.90;;;;;;4999384;28;20530;-90
2022/04/28 01:02:10;;;;;;;14.88;5.20;;;5.00;99.90;;;;;;4994151;28;20042;-90
2022/04/28 01:04:37;;;;;;;13.50;5.40;;;5.10;99.90;;;;;;4994643;28;20096;-90
2022/04/28 01:07:03;;;;;;;11.23;4.85;;;5.00;99.90;;;;;;4994020;28;20057;-89
2022/04/28 01:09:29;;;;;;;11.50;5.07;;;5.00;99.90;;;;;;4993742;28;20054;-89
2022/04/28 01:11:55;;;;;;;11.32;4.72;;;5.00;99.90;;;;;;4993531;28;20400;-90
2022/04/28 01:14:20;;;;;;;16.27;5.78;;;4.90;99.90;;;;;;4993618;28;20472;-90
2022/04/28 01:16:46;;;;;;;11.10;4.55;;;4.90;99.90;;;;;;4994310;28;20101;-90
2022/04/28 01:19:11;;;;;;;9.18;4.47;;;4.80;99.90;;;;;;4993710;28;20125;-89
2022/04/28 01:21:37;;;;;;;12.10;4.97;;;4.80;99.90;;;;;;4993522;28;20130;-90
2022/04/28 01:24:03;;;;;;;14.77;5.45;;;4.80;99.90;;;;;;4993634;28;20057;-90
2022/04/28 01:26:29;;;;;;;13.38;5.55;;;4.80;99.90;;;;;;4993735;28;20064;-89
2022/04/28 01:28:54;;;;;;;13.68;5.13;;;4.80;99.90;;;;;;4993636;28;20474;-90
2022/04/28 01:31:20;;;;;;;11.55;4.57;;;4.80;99.90;;;;;;4993223;28;20492;-90
2022/04/28 01:33:46;;;;;;;11.25;4.93;;;4.80;99.90;;;;;;4993565;28;20093;-89
2022/04/28 01:36:11;;;;;;;11.45;4.85;;;4.80;99.90;;;;;;4993534;28;20034;-90
2022/04/28 01:38:37;;;;;;;12.20;4.85;;;4.80;99.90;;;;;;4993667;28;20074;-89
2022/04/28 01:41:02;;;;;;;13.45;5.50;;;4.80;99.90;;;;;;4993131;28;20125;-90
2022/04/28 01:43:28;;;;;;;11.43;5.70;;;4.80;99.90;;;;;;4993204;28;20049;-89
2022/04/28 01:45:53;;;;;;;13.10;6.07;;;4.80;99.90;;;;;;4993305;28;20053;-90
2022/04/28 01:48:20;;;;;;;12.52;4.72;;;4.80;99.90;;;;;;4993051;28;20042;-89
2022/04/28 01:54:57;;;;;;;11.95;4.57;;;4.70;99.90;;;;;;4992815;28;20034;-90
2022/04/28 01:56:15;;;;;;;11.25;4.65;;;4.60;99.90;;;;;;4992617;28;20130;-89
2022/04/28 01:58:40;;;;;;;11.77;4.97;;;4.50;99.90;;;;;;4992906;28;20121;-89
2022/04/28 02:01:07;;;;;;;12.82;5.03;;;4.50;99.90;;;;;;4992961;28;20046;-90
2022/04/28 02:03:32;;;;;;;9.25;4.32;;;4.50;99.90;;;;;;4992578;28;20045;-89
2022/04/28 02:05:58;;;;;;;9.80;4.43;;;4.40;99.90;;;;;;4993153;28;20045;-90
2022/04/28 02:08:24;;;;;;;11.18;4.45;;;4.30;99.90;;;;;;4992797;28;20144;-90
2022/04/28 02:10:50;;;;;;;10.07;4.28;;;4.30;99.90;;;;;;4992328;28;20121;-90
2022/04/28 02:13:16;;;;;;;14.77;4.85;;;4.20;99.90;;;;;;4992853;28;20034;-89
2022/04/28 02:15:45;;;;;;;10.25;4.50;;;4.20;99.90;;;;;;4992634;28;20096;-90
2022/04/28 02:18:11;;;;;;;13.50;5.30;;;4.20;99.90;;;;;;4992407;28;20044;-90
2022/04/28 02:20:37;;;;;;;12.73;4.82;;;4.20;99.90;;;;;;4992262;28;20030;-89
2022/04/28 02:23:03;;;;;;;14.10;6.10;;;4.20;99.90;;;;;;4992817;28;20476;-90
2022/04/28 02:25:28;;;;;;;11.52;4.95;;;4.20;99.90;;;;;;4992849;28;20423;-90
2022/04/28 02:27:54;;;;;;;10.43;4.40;;;4.20;99.90;;;;;;4992741;28;20522;-90
2022/04/28 02:30:20;;;;;;;10.30;4.72;;;4.10;99.90;;;;;;4992093;28;20480;-90
2022/04/28 02:35:29;;;;;;;16.83;6.63;;;4.10;99.90;;;;;;4992213;28;20444;-90
2022/04/28 02:37:55;;;;;;;13.00;6.00;;;4.10;99.90;;;;;;4992441;28;20042;-89
2022/04/28 02:40:20;;;;;;;16.52;6.82;;;4.10;99.90;;;;;;4991612;28;20034;-90
2022/04/28 02:42:46;;;;;;;15.18;6.15;;;4.10;99.90;;;;;;4992067;28;20156;-90
2022/04/28 02:45:11;;;;;;;12.55;5.93;;;4.10;99.90;;;;;;4992051;28;20108;-90
2022/04/28 02:47:37;;;;;;;13.80;5.93;;;4.10;99.90;;;;;;4992192;28;20046;-90
2022/04/28 02:50:05;;;;;;;10.80;5.97;;;4.10;99.90;;;;;;4991673;28;20077;-90
2022/04/28 02:52:31;;;;;;;13.60;5.78;;;4.10;99.90;;;;;;4992068;28;20042;-90
2022/04/28 02:54:57;;;;;;;15.10;5.60;;;4.10;99.90;;;;;;4992036;28;20042;-90
2022/04/28 02:57:22;;;;;;;10.93;5.80;;;4.10;99.90;;;;;;4991875;28;20412;-90
2022/04/28 02:59:48;;;;;;;13.60;5.18;;;4.10;99.90;;;;;;4991722;28;20038;-89
2022/04/28 03:02:13;;;;;;;12.80;6.32;;;4.00;99.90;;;;;;4991729;28;20129;-90
2022/04/28 03:04:39;;;;;;;12.93;6.75;;;4.00;99.90;;;;;;4992036;28;20042;-90
2022/04/28 03:12:35;;;;;;;11.90;3.63;;;3.80;99.90;;;;;;4991585;28;20050;-90
2022/04/28 03:15:06;;;;;;;10.73;4.95;;;3.70;99.90;;;;;;4991793;28;20156;-90
2022/04/28 03:17:33;;;;;;;9.63;3.55;;;3.70;99.90;;;;;;4991366;28;20039;-90
2022/04/28 03:19:58;;;;;;;9.65;4.00;;;3.70;99.90;;;;;;4991491;28;20034;-90
2022/04/28 03:22:24;;;;;;;10.15;4.45;;;3.70;99.90;;;;;;4991770;28;20409;-90
2022/04/28 03:24:49;;;;;;;14.95;5.55;;;3.60;99.90;;;;;;4991149;28;20424;-90
2022/04/28 03:27:15;;;;;;;9.05;4.35;;;3.60;99.90;;;;;;4991696;28;20420;-91
2022/04/28 03:29:41;;;;;;;10.00;4.43;;;3.60;99.90;;;;;;4991734;28;20042;-90
2022/04/28 03:32:10;;;;;;;11.00;4.75;;;3.60;99.90;;;;;;4991173;28;20494;-90
2022/04/28 03:34:35;;;;;;;10.68;4.15;;;3.60;99.90;;;;;;4991529;28;20081;-90
2022/04/28 03:37:01;;;;;;;13.77;4.50;;;3.60;99.90;;;;;;4991724;28;20100;-90
2022/04/28 03:39:26;;;;;;;11.15;4.35;;;3.50;99.90;;;;;;4991528;28;20034;-90
2022/04/28 03:41:52;;;;;;;9.23;4.05;;;3.50;99.90;;;;;;4991059;28;20521;-90
2022/04/28 03:44:17;;;;;;;8.02;3.28;;;3.50;99.90;;;;;;4991212;28;20053;-90
2022/04/28 03:46:43;;;;;;;6.97;2.90;;;3.50;99.90;;;;;;4991565;28;20090;-90
2022/04/28 03:49:09;;;;;;;5.93;2.58;;;3.40;99.90;;;;;;4991421;28;20054;-90
2022/04/28 03:51:34;;;;;;;11.75;3.65;;;3.40;99.90;;;;;;4993888;28;20035;-90
2022/04/28 03:54:00;;;;;;;9.05;3.67;;;3.30;99.90;;;;;;4995306;28;20563;-90
2022/04/28 03:56:30;;;;;;;7.15;3.40;;;3.30;99.90;;;;;;4995304;28;20122;-90
2022/04/28 03:58:56;;;;;;;11.48;4.72;;;3.30;99.90;;;;;;4995190;28;20066;-90
2022/04/28 04:01:23;;;;;;;9.45;4.20;;;3.30;99.90;;;;;;4994842;28;20500;-90
2022/04/28 04:03:48;;;;;;;12.15;5.82;;;3.30;99.90;;;;;;4995135;28;20042;-90
2022/04/28 04:06:14;;;;;;;11.35;4.82;;;3.30;99.90;;;;;;4994488;28;20053;-89
2022/04/28 04:08:39;;;;;;;8.05;3.97;;;3.40;99.90;;;;;;4994086;28;20385;-90
2022/04/28 04:11:05;;;;;;;9.07;3.60;;;3.30;99.90;;;;;;4994479;28;20108;-89
2022/04/28 04:13:31;;;;;;;6.97;3.15;;;3.40;99.90;;;;;;4994949;28;20121;-89
2022/04/28 04:15:56;;;;;;;8.43;3.55;;;3.30;99.90;;;;;;4994979;28;20186;-90
2022/04/28 04:18:22;;;;;;;7.85;3.20;;;3.30;99.90;;;;;;4995116;28;20042;-90
2022/04/28 04:20:47;;;;;;;8.30;4.03;;;3.40;99.90;;;;;;4994628;28;20506;-90
2022/04/28 04:23:13;;;;;;;10.65;4.68;;;3.40;99.90;;;;;;4994680;28;20455;-90
2022/04/28 04:25:39;;;;;;;10.02;4.47;;;3.40;99.90;;;;;;4995027;28;20046;-89
2022/04/28 04:28:04;;;;;;;10.18;3.88;;;3.40;99.90;;;;;;4994895;28;20559;-90
2022/04/28 04:33:14;;;;;;;9.02;4.45;;;3.50;99.90;;;;;;4994746;28;20086;-90
2022/04/28 04:35:40;;;;;;;11.18;4.95;;;3.50;99.90;;;;;;4994913;28;20432;-89
2022/04/28 04:38:05;;;;;;;11.07;5.38;;;3.50;99.90;;;;;;4994287;28;20612;-89
2022/04/28 04:40:31;;;;;;;8.65;3.45;;;3.60;99.90;;;;;;4994375;28;20050;-90
2022/04/28 04:42:56;;;;;;;9.82;3.63;;;3.60;99.90;;;;;;4994390;28;20046;-89
2022/04/28 04:45:23;;;;;;;9.07;4.25;;;3.60;99.90;;;;;;4994415;28;20129;-89
2022/04/28 04:47:49;;;;;;;16.02;5.38;;;3.60;99.90;;;;;;4994341;28;20537;-90
2022/04/28 04:50:14;;;;;;;13.30;6.55;;;3.70;99.90;;;;;;4994153;28;20579;-90
2022/04/28 04:52:40;;;;;;;13.20;6.05;;;3.70;99.90;;;;;;4994126;28;20046;-90
2022/04/28 04:55:06;;;;;;;18.35;7.60;;;3.70;99.90;;;;;;4994499;28;20069;-90
2022/04/28 04:57:32;;;;;;;12.15;5.70;;;3.70;99.90;;;;;;4994421;28;20452;-90
2022/04/28 04:59:58;;;;;;;10.45;5.60;;;3.70;99.90;;;;;;4993744;28;20046;-90
2022/04/28 05:02:24;;;;;;;10.38;4.97;;;3.80;99.90;;;;;;4993424;28;20094;-91
2022/04/28 05:04:50;;;;;;;13.57;5.53;;;3.80;99.90;;;;;;4993823;28;20042;-90
2022/04/28 05:07:16;;;;;;;12.18;5.60;;;3.80;99.90;;;;;;4994647;28;20041;-90
2022/04/28 05:09:42;;;;;;;13.57;6.00;;;3.80;99.90;;;;;;4994079;28;20512;-90
2022/04/28 05:12:08;;;;;;;13.18;6.13;;;3.90;99.90;;;;;;4993764;28;20416;-90
2022/04/28 05:14:34;;;;;;;15.82;7.03;;;3.90;99.90;;;;;;4994041;28;20069;-89
2022/04/28 05:17:00;;;;;;;16.70;6.80;;;4.00;99.90;;;;;;4993739;28;20070;-90
2022/04/28 05:19:26;;;;;;;16.00;6.95;;;4.10;99.90;;;;;;4993843;28;20042;-90
2022/04/28 05:21:52;;;;;;;15.23;7.30;;;4.20;99.90;;;;;;4993658;28;20042;-90
2022/04/28 05:24:18;;;;;;;14.55;6.57;;;4.20;99.90;;;;;;4993836;28;20500;-89
2022/04/28 05:26:44;;;;;;;13.55;6.25;;;4.30;99.90;;;;;;4993741;28;20053;-90
2022/04/28 05:29:10;;;;;;;12.23;6.70;;;4.40;99.90;;;;;;4993837;28;20042;-89
2022/04/28 05:31:35;;;;;;;14.85;7.00;;;4.50;99.90;;;;;;4993598;28;20042;-89
2022/04/28 05:34:01;;;;;;;12.38;6.03;;;4.50;99.90;;;;;;5001746;28;20058;-90
2022/04/28 05:36:28;;;;;;;14.50;6.32;;;4.60;99.90;;;;;;4995443;28;20069;-90
2022/04/28 05:38:59;;;;;;;12.40;6.30;;;4.60;99.90;;;;;;4995052;28;20046;-90
2022/04/28 05:41:26;;;;;;;11.63;6.00;;;4.70;99.90;;;;;;4993833;28;20038;-90
2022/04/28 05:46:37;;;;;;;12.65;6.13;;;4.90;99.90;;;;;;4993329;28;20622;-89
2022/04/28 05:49:05;;;;;;;15.00;7.20;;;5.00;99.90;;;;;;4993447;28;20042;-89
2022/04/28 05:51:31;;;;;;;14.80;7.25;;;5.10;99.90;;;;;;4992434;28;20050;-88
2022/04/28 05:53:57;;;;;;;13.63;6.78;;;5.20;99.90;;;;;;4993448;28;20048;-89
2022/04/28 05:56:23;;;;;;;13.00;6.80;;;5.30;99.90;;;;;;4992989;28;20045;-89
2022/04/28 05:58:48;;;;;;;15.98;7.18;;;5.40;99.90;;;;;;4993290;28;20093;-89
2022/04/28 06:01:14;;;;;;;14.82;7.35;;;5.50;99.90;;;;;;4992502;28;20132;-89
2022/04/28 06:03:41;;;;;;;12.23;7.00;;;5.60;99.90;;;;;;4993360;28;20031;-89
2022/04/28 06:06:07;;;;;;;16.30;8.43;;;5.70;99.90;;;;;;4992914;28;20053;-89
2022/04/28 06:08:33;;;;;;;13.95;7.22;;;5.70;99.90;;;;;;4992792;28;20535;-89
2022/04/28 06:11:01;;;;;;;13.65;7.30;;;5.80;99.90;;;;;;4992672;28;20038;-89
2022/04/28 06:13:26;;;;;;;14.00;8.43;;;5.90;99.90;;;;;;4991330;28;20038;-89
2022/04/28 06:15:52;;;;;;;15.25;7.20;;;6.00;99.90;;;;;;4991261;28;20043;-89
2022/04/28 06:18:18;;;;;;;18.35;7.50;;;6.10;99.90;;;;;;4992624;28;20132;-90
2022/04/28 06:20:44;;;;;;;15.18;7.25;;;6.10;99.90;;;;;;4992304;28;20057;-90
2022/04/28 06:23:11;;;;;;;14.63;8.13;;;6.20;99.90;;;;;;4992671;28;20042;-89
2022/04/28 06:25:37;;;;;;;17.00;8.20;;;6.30;99.90;;;;;;4992215;28;20425;-89
2022/04/28 06:28:02;;;;;;;15.73;8.15;;;6.30;99.90;;;;;;4992482;28;20132;-89
2022/04/28 06:30:28;;;;;;;16.33;8.15;;;6.40;99.90;;;;;;4991890;28;20038;-89
2022/04/28 06:32:54;;;;;;;19.40;7.65;;;6.50;99.90;;;;;;4992124;28;20042;-88
2022/04/28 06:35:19;;;;;;;15.50;8.07;;;6.50;99.90;;;;;;4992358;28;20049;-88
2022/04/28 06:37:45;;;;;;;16.98;7.63;;;6.60;99.90;;;;;;4992458;28;20038;-89
2022/04/28 06:40:12;;;;;;;15.32;7.13;;;6.60;99.90;;;;;;4992234;28;20035;-89
2022/04/28 06:42:42;;;;;;;16.92;7.20;;;6.70;99.90;;;;;;4991791;28;20125;-89
2022/04/28 06:45:08;;;;;;;14.88;7.82;;;6.80;99.90;;;;;;4992166;28;20484;-89
2022/04/28 06:47:34;;;;;;;16.20;7.22;;;6.80;99.90;;;;;;4991999;28;20049;-89
2022/04/28 06:50:00;;;;;;;15.73;6.60;;;6.90;99.90;;;;;;4991789;28;20046;-89
2022/04/28 06:52:25;;;;;;;14.40;6.55;;;7.00;99.90;;;;;;4989964;28;20471;-89
2022/04/28 06:54:51;;;;;;;13.23;6.78;;;7.00;99.90;;;;;;4991337;28;20098;-89
2022/04/28 06:57:16;;;;;;;15.00;6.82;;;7.10;99.90;;;;;;4991523;28;20579;-89
2022/04/28 06:59:42;;;;;;;15.23;7.10;;;7.20;99.90;;;;;;4991381;28;20467;-89
2022/04/28 07:02:09;;;;;;;13.30;7.07;;;7.30;99.90;;;;;;4991306;28;20419;-89
2022/04/28 07:04:34;;;;;;;14.68;6.82;;;7.30;99.90;;;;;;4991700;28;20046;-89
2022/04/28 07:07:00;;;;;;;14.65;7.10;;;7.40;99.90;;;;;;4991534;28;20050;-89
2022/04/28 07:09:26;;;;;;;14.70;7.45;;;7.50;99.90;;;;;;4992013;28;20041;-89
2022/04/28 07:11:51;;;;;;;15.88;7.18;;;7.50;99.90;;;;;;4990993;28;20129;-88
2022/04/28 07:14:17;;;;;;;14.13;7.22;;;7.60;99.90;;;;;;4991668;28;20389;-89
2022/04/28 07:16:43;;;;;;;13.40;5.85;;;7.70;99.90;;;;;;4991396;28;20042;-89
2022/04/28 07:19:08;;;;;;;13.57;6.65;;;7.80;99.90;;;;;;4991413;28;20408;-89
2022/04/28 07:21:35;;;;;;;12.90;6.97;;;7.90;99.90;;;;;;4991038;28;20133;-89
2022/04/28 07:24:00;;;;;;;15.18;6.65;;;8.00;99.90;;;;;;4991203;28;20049;-89
2022/04/28 07:26:26;;;;;;;12.43;5.82;;;8.10;99.90;;;;;;4991608;28;20121;-89
2022/04/28 07:28:52;;;;;;;14.55;6.53;;;8.20;99.90;;;;;;4990920;28;20069;-89
2022/04/28 07:31:17;;;;;;;16.38;6.22;;;8.30;99.90;;;;;;4990758;28;20407;-89
2022/04/28 07:33:43;;;;;;;12.95;6.28;;;8.40;99.90;;;;;;4991291;28;20035;-89
2022/04/28 07:36:08;;;;;;;13.73;6.55;;;8.50;99.90;;;;;;4991263;28;20041;-89
2022/04/28 07:38:34;;;;;;;14.77;6.03;;;8.60;99.90;;;;;;4991455;28;20049;-89
2022/04/28 07:41:02;;;;;;;13.18;5.82;;;8.70;99.90;;;;;;4990728;28;20042;-89
2022/04/28 07:43:28;;;;;;;12.13;5.70;;;8.80;99.90;;;;;;4990905;28;20038;-89
2022/04/28 07:45:54;;;;;;;14.05;6.55;;;8.90;99.90;;;;;;4991036;28;20500;-90
2022/04/28 07:48:19;;;;;;;12.18;5.85;;;9.00;99.90;;;;;;4990873;28;20042;-89
2022/04/28 07:50:46;;;;;;;14.20;6.47;;;9.10;99.90;;;;;;4990864;28;20030;-89
2022/04/28 07:53:12;;;;;;;13.15;6.47;;;9.30;99.90;;;;;;4991034;28;20129;-90
2022/04/28 07:55:38;;;;;;;15.20;6.55;;;9.40;99.90;;;;;;4991003;28;20503;-90
2022/04/28 07:58:04;;;;;;;12.40;5.60;;;9.50;99.90;;;;;;4991010;28;20042;-90
2022/04/28 08:00:29;;;;;;;12.77;5.72;;;9.60;99.90;;;;;;4990546;28;20746;-89
2022/04/28 08:02:55;;;;;;;15.77;6.13;;;9.70;99.90;;;;;;4990983;28;20042;-89
2022/04/28 08:05:20;;;;;;;15.05;5.88;;;9.90;99.90;;;;;;4990402;28;20101;-89
2022/04/28 08:07:46;;;;;;;12.23;5.93;;;10.10;99.90;;;;;;4990359;28;20047;-90
2022/04/28 08:10:12;;;;;;;14.13;5.28;;;10.40;99.90;;;;;;4990607;28;20038;-89
2022/04/28 08:12:38;;;;;;;13.07;5.15;;;10.50;99.90;;;;;;4990550;28;20046;-89
2022/04/28 08:15:05;;;;;;;12.65;5.15;;;10.70;99.90;;;;;;4991009;28;20065;-90
2022/04/28 08:17:30;;;;;;;13.18;5.20;;;10.70;99.90;;;;;;4991088;28;20046;-90
2022/04/28 08:19:56;;;;;;;14.70;5.28;;;10.80;99.90;;;;;;4995360;28;20042;-90
2022/04/28 08:22:21;;;;;;;16.23;5.72;;;10.80;99.90;;;;;;4974562;28;20041;-90
2022/04/28 08:24:47;;;;;;;11.55;4.60;;;10.90;99.90;;;;;;4974534;28;20043;-91
2022/04/28 08:27:13;;;;;;;13.73;5.22;;;10.90;99.90;;;;;;4984824;28;20056;-90
2022/04/28 08:29:39;;;;;;;12.70;5.22;;;11.00;99.90;;;;;;4998688;28;20380;-91
2022/04/28 08:32:05;;;;;;;13.18;5.03;;;11.10;99.90;;;;;;4998172;28;20049;-90
2022/04/28 08:34:30;;;;;;;11.07;5.00;;;11.10;99.90;;;;;;5025248;28;20042;-91
2022/04/28 08:36:56;;;;;;;13.10;5.13;;;11.20;99.90;;;;;;4999182;28;20030;-90
2022/04/28 08:39:21;;;;;;;13.50;4.97;;;11.20;99.90;;;;;;4986337;28;20041;-90
2022/04/28 08:41:47;;;;;;;13.73;5.45;;;11.20;99.90;;;;;;5003642;28;20052;-91
2022/04/28 08:44:24;;;;;;;13.70;4.68;;;11.20;99.90;;;;;;4985795;28;20034;-90
2022/04/28 08:46:52;;;;;;;11.98;6.38;;;11.30;99.90;;;;;;4986068;28;20038;-90
2022/04/28 08:49:29;;;;;;;14.82;5.32;;;11.40;99.90;;;;;;4986546;28;20475;-90
2022/04/28 08:51:57;;;;;;;12.38;5.43;;;11.40;99.90;;;;;;4999208;28;20050;-90
2022/04/28 08:54:25;;;;;;;12.48;5.60;;;11.50;99.90;;;;;;5002462;28;20053;-91
2022/04/28 08:56:52;;;;;;;16.70;5.90;;;11.60;99.90;;;;;;5006053;28;20092;-90
2022/04/28 08:59:19;;;;;;;12.13;5.30;;;11.70;99.90;;;;;;5001273;28;20112;-91
2022/04/28 09:01:45;;;;;;;11.93;4.78;;;11.80;99.90;;;;;;5028315;28;20404;-90
2022/04/28 09:04:11;;;;;;;11.30;5.05;;;11.90;99.90;;;;;;4986257;28;20526;-90
2022/04/28 09:06:40;;;;;;;13.90;4.72;;;12.00;99.90;;;;;;4987653;28;20534;-90
2022/04/28 09:09:15;;;;;;;14.73;6.10;;;12.10;99.90;;;;;;4999602;28;20052;-91
2022/04/28 09:11:42;;;;;;;13.40;5.28;;;12.20;99.90;;;;;;5012869;28;20108;-91
2022/04/28 09:14:18;;;;;;;13.88;4.95;;;12.30;99.90;;;;;;5013314;28;20514;-91
2022/04/28 09:16:54;;;;;;;11.25;4.32;;;12.50;99.90;;;;;;4997049;28;20050;-91
2022/04/28 09:19:27;;;;;;;9.68;4.20;;;12.60;99.90;;;;;;5013189;28;20041;-91
2022/04/28 09:22:04;;;;;;;13.15;4.88;;;12.60;99.90;;;;;;4996891;28;20042;-91
2022/04/28 09:24:30;;;;;;;12.95;4.43;;;12.70;99.90;;;;;;5013162;28;20128;-91
2022/04/28 09:26:56;;;;;;;14.48;4.38;;;12.90;99.90;;;;;;5013189;28;20124;-91
2022/04/28 09:29:27;;;;;;;13.20;4.32;;;13.00;99.90;;;;;;4996235;28;20038;-90
2022/04/28 09:31:53;;;;;;;15.90;4.88;;;13.10;99.60;;;;;;5012706;28;20550;-90
2022/04/28 09:34:20;;;;;;;11.40;4.40;;;13.20;99.20;;;;;;5013000;28;20042;-90
2022/04/28 09:36:48;;;;;;;10.05;3.70;;;13.30;99.10;;;;;;5012643;28;20046;-91
2022/04/28 09:44:54;;;;;;;11.68;3.60;;;13.40;98.30;;;;;;5012896;28;20049;-91
2022/04/28 09:47:22;;;;;;;11.63;3.67;;;13.50;98.10;;;;;;5013324;28;20128;-91
2022/04/28 09:49:57;;;;;;;10.82;3.70;;;13.60;97.90;;;;;;4987249;28;20038;-91
2022/04/28 09:52:26;;;;;;;11.48;3.80;;;13.60;97.80;;;;;;4996300;28;20046;-91
2022/04/28 09:54:54;;;;;;;12.48;4.47;;;13.70;98.10;;;;;;4994524;28;20040;-91
2022/04/28 09:57:20;;;;;;;13.05;3.85;;;13.80;97.90;;;;;;4990844;28;20042;-91
2022/04/28 09:59:53;;;;;;;10.57;3.97;;;13.90;97.40;;;;;;4977017;28;20073;-91
2022/04/28 10:02:23;;;;;;;12.73;4.57;;;13.90;96.80;;;;;;4992890;28;20500;-91
2022/04/28 10:04:49;;;;;;;10.70;3.92;;;14.00;97.40;;;;;;4993064;28;20562;-91
2022/04/28 10:07:15;;;;;;;9.10;3.58;;;14.20;96.90;;;;;;4993002;28;20050;-91
2022/04/28 10:09:42;;;;;;;10.98;3.45;;;14.30;95.90;;;;;;5009313;28;20064;-91
2022/04/28 10:12:09;;;;;;;11.27;3.00;;;14.40;95.60;;;;;;5025077;28;20049;-91
2022/04/28 10:14:39;;;;;;;13.02;4.82;;;14.50;95.00;;;;;;5009310;28;20053;-91
2022/04/28 10:17:10;;;;;;;10.32;2.88;;;14.60;94.70;;;;;;5025505;28;20500;-89
2022/04/28 10:19:41;;;;;;;7.95;2.88;;;14.60;93.00;;;;;;5025845;28;20065;-91
2022/04/28 10:22:11;;;;;;;9.18;3.28;;;14.60;92.60;;;;;;4975621;28;20047;-91
2022/04/28 10:33:00;;;;;;;8.73;3.05;;;15.10;92.90;;;;;;4992522;28;20050;-91
2022/04/28 10:35:55;;;;;;;7.95;2.70;;;15.30;90.90;;;;;;4992199;28;20038;-90
2022/04/28 10:38:26;;;;;;;13.25;3.25;;;15.50;88.10;;;;;;4992385;28;20100;-90
2022/04/28 10:40:56;;;;;;;10.38;3.47;;;15.60;88.90;;;;;;4991548;28;20515;-91
2022/04/28 10:43:26;;;;;;;12.90;3.53;;;15.80;90.30;;;;;;4991947;28;20046;-90
2022/04/28 10:45:54;;;;;;;12.82;3.88;;;16.00;85.70;;;;;;4992098;28;20046;-90
2022/04/28 10:48:42;;;;;;;12.82;5.05;;;16.00;80.60;;;;;;4991897;28;20048;-90
2022/04/28 10:51:20;;;;;;;13.43;3.47;;;16.00;83.10;;;;;;4996977;28;20045;-91
2022/04/28 10:54:03;;;;;;;10.30;2.80;;;16.00;81.60;;;;;;4983382;28;20518;-91
2022/04/28 10:56:41;;;;;;;11.75;4.05;;;16.00;79.70;;;;;;4995179;28;20188;-90
2022/04/28 10:59:25;;;;;;;11.55;3.03;;;15.90;79.70;;;;;;5011436;28;20100;-91
2022/04/28 11:01:51;;;;;;;11.07;3.10;;;16.10;78.70;;;;;;5010656;28;20507;-91
2022/04/28 11:04:22;;;;;;;10.05;4.28;;;16.20;79.10;;;;;;4995034;28;20033;-91
2022/04/28 11:06:56;;;;;;;10.98;3.90;;;16.40;79.20;;;;;;5011325;28;20041;-90
2022/04/28 11:09:37;;;;;;;10.10;3.45;;;16.60;75.10;;;;;;5011055;28;20042;-91
2022/04/28 11:12:18;;;;;;;10.45;3.45;;;16.70;71.80;;;;;;4989334;28;20509;-91
2022/04/28 11:14:52;;;;;;;9.63;3.20;;;16.80;71.70;;;;;;4981264;28;20073;-91
2022/04/28 11:17:22;;;;;;;16.63;3.70;;;16.90;71.80;;;;;;4994938;28;20547;-91
2022/04/28 11:19:50;;;;;;;13.18;3.38;;;17.00;70.90;;;;;;4994615;28;20088;-91
2022/04/28 11:22:16;;;;;;;11.10;3.13;;;17.10;72.30;;;;;;4994424;28;20041;-91
2022/04/28 11:24:42;;;;;;;10.38;3.20;;;17.30;71.20;;;;;;5011042;28;20065;-91
2022/04/28 11:27:08;;;;;;;10.25;3.05;;;17.40;69.20;;;;;;5011033;28;20042;-90
2022/04/28 11:29:39;;;;;;;9.23;2.90;;;17.50;67.60;;;;;;4994507;28;20041;-91
2022/04/28 11:32:08;;;;;;;13.05;3.83;;;17.70;65.60;;;;;;5010603;28;20052;-91
2022/04/28 11:34:34;;;;;;;11.82;3.35;;;17.70;66.10;;;;;;5012154;28;20081;-91
2022/04/28 11:37:17;;;;;;;9.60;3.42;;;17.80;67.20;;;;;;5011032;28;20081;-91
2022/04/28 11:39:49;;;;;;;10.05;3.22;;;17.90;66.90;;;;;;4994512;28;20056;-91
2022/04/28 11:42:18;;;;;;;8.98;3.28;;;18.00;66.40;;;;;;5009340;28;20526;-91
2022/04/28 11:44:52;;;;;;;10.45;3.55;;;18.10;66.50;;;;;;5004748;28;20042;-91
2022/04/28 11:47:22;;;;;;;8.85;3.42;;;18.20;65.00;;;;;;4993829;28;20030;-90
2022/04/28 11:49:52;;;;;;;11.25;3.15;;;18.40;67.60;;;;;;5016591;28;20041;-90
2022/04/28 11:52:29;;;;;;;11.88;3.08;;;18.40;66.10;;;;;;5016181;28;20037;-90
2022/04/28 11:55:08;;;;;;;11.63;3.20;;;18.50;65.70;;;;;;5016598;28;20053;-90
2022/04/28 11:57:36;;;;;;;10.98;3.42;;;18.70;64.10;;;;;;5016290;28;20073;-90
2022/04/28 12:00:05;;;;;;;10.10;3.70;;;18.80;64.80;;;;;;5015969;28;20123;-91
2022/04/28 12:02:35;;;;;;;10.73;3.35;;;18.80;62.20;;;;;;4990139;28;20081;-91
2022/04/28 12:05:27;;;;;;;9.60;3.28;;;18.80;63.40;;;;;;4991720;28;20034;-91
2022/04/28 12:07:53;;;;;;;10.85;3.55;;;19.10;65.60;;;;;;4898003;29;20066;-91
2022/04/28 12:16:19;;;;;;;12.23;3.92;;;18.90;62.60;;;;;;4901036;29;20044;-90
2022/04/28 12:21:37;;;;;;;12.73;4.10;;;19.00;62.50;;;;;;4900692;29;20048;-90
2022/04/28 12:24:14;;;;;;;10.98;4.20;;;19.20;62.50;;;;;;4916722;29;20127;-90
2022/04/28 12:26:42;;;;;;;10.57;3.80;;;19.50;63.20;;;;;;4901002;29;20503;-91
2022/04/28 12:29:13;;;;;;;10.43;3.97;;;19.60;61.30;;;;;;4900269;29;20180;-90
2022/04/28 12:31:39;;;;;;;11.80;3.67;;;19.50;60.20;;;;;;4900005;29;20096;-91
2022/04/28 12:34:10;;;;;;;14.25;4.35;;;19.40;60.10;;;;;;4900822;29;20103;-91
2022/04/28 12:36:44;;;;;;;12.95;3.97;;;19.30;59.40;;;;;;4900674;29;20040;-90
2022/04/28 12:39:09;;;;;;;10.00;3.55;;;19.30;60.30;;;;;;4905413;29;20060;-91
2022/04/28 12:41:42;;;;;;;10.43;3.67;;;19.50;60.10;;;;;;4883989;29;20043;-90
2022/04/28 12:44:07;;;;;;;10.90;3.78;;;19.70;59.70;;;;;;4899605;28;20057;-90
2022/04/28 12:46:35;;;;;;;14.27;3.72;;;19.90;58.30;;;;;;4985588;28;20038;-90
2022/04/28 12:49:03;;;;;;;9.95;3.78;;;20.00;57.60;;;;;;4971783;28;20061;-90
2022/04/28 12:51:30;;;;;;;11.80;3.90;;;20.20;59.30;;;;;;4991918;28;20515;-91
2022/04/28 12:54:09;;;;;;;10.63;3.85;;;20.20;57.50;;;;;;4991827;28;20044;-91
2022/04/28 12:56:35;;;;;;;10.48;3.67;;;20.20;57.20;;;;;;4991903;28;20046;-90
2022/04/28 12:59:04;;;;;;;13.45;3.67;;;20.30;56.20;;;;;;4991808;28;20121;-90
2022/04/28 13:01:31;;;;;;;12.85;3.80;;;20.40;55.80;;;;;;4991685;28;20059;-90
2022/04/28 13:04:06;;;;;;;11.07;3.38;;;20.50;55.20;;;;;;4976151;28;20129;-91
2022/04/28 13:06:37;;;;;;;13.07;3.80;;;20.80;56.90;;;;;;4992819;28;20038;-91
2022/04/28 13:09:07;;;;;;;10.75;3.97;;;20.90;54.90;;;;;;4993189;28;20061;-90
2022/04/28 13:11:38;;;;;;;12.07;3.67;;;20.80;53.40;;;;;;4976649;28;20046;-90
2022/04/28 13:14:06;;;;;;;13.02;4.00;;;20.70;53.40;;;;;;4993180;28;20070;-90
2022/04/28 13:16:32;;;;;;;10.85;3.45;;;20.60;52.80;;;;;;4993593;28;20050;-90
2022/04/28 13:18:58;;;;;;;12.43;5.40;;;20.70;54.50;;;;;;4993285;28;20048;-90
2022/04/28 13:21:25;;;;;;;12.27;4.35;;;20.90;53.80;;;;;;4976000;28;20042;-90
2022/04/28 13:23:51;;;;;;;11.38;3.40;;;21.10;53.00;;;;;;4977002;28;20042;-91
2022/04/28 13:26:18;;;;;;;11.75;3.70;;;21.20;53.80;;;;;;4977104;28;20492;-90